createdAt,value
2016-04-29T00:01:01.536Z,0
2016-04-29T00:01:37.414Z,0
2016-04-29T00:03:38.622Z,0
2016-04-29T00:03:51.216Z,0
2016-04-29T00:04:51.188Z,0
2016-04-29T00:05:51.346Z,0
2016-04-29T00:06:51.239Z,0
2016-04-29T00:07:51.273Z,0
2016-04-29T00:08:51.276Z,0
2016-04-29T00:10:04.029Z,0
2016-04-29T00:10:57.672Z,0
2016-04-29T00:11:51.300Z,0
2016-04-29T00:12:51.317Z,0
2016-04-29T00:14:04.101Z,0
2016-04-29T00:14:51.331Z,0
2016-04-29T00:15:51.451Z,0
2016-04-29T00:16:52.900Z,0
2016-04-29T00:18:04.302Z,0
2016-04-29T00:18:54.461Z,0
2016-04-29T00:19:51.618Z,0
2016-04-29T00:21:10.916Z,0
2016-04-29T00:21:57.965Z,0
2016-04-29T00:24:06.932Z,0
2016-04-29T00:25:06.972Z,0
2016-04-29T00:26:06.963Z,0
2016-04-29T00:27:07.627Z,0
2016-04-29T00:28:07.009Z,0
2016-04-29T00:29:07.157Z,0
2016-04-29T00:30:19.584Z,0
2016-04-29T00:31:13.353Z,0
2016-04-29T00:32:26.280Z,0
2016-04-29T00:33:07.816Z,0
2016-04-29T00:34:07.086Z,0
2016-04-29T00:35:19.714Z,0
2016-04-29T00:36:07.124Z,0
2016-04-29T00:37:07.143Z,0
2016-04-29T00:38:07.740Z,0
2016-04-29T00:39:07.759Z,0
2016-04-29T00:40:14.873Z,0
2016-04-29T00:41:19.922Z,0
2016-04-29T00:42:07.222Z,0
2016-04-29T00:43:07.225Z,0
2016-04-29T00:44:07.431Z,0
2016-04-29T18:19:21.703Z,776
2016-04-29T18:20:22.018Z,748
2016-04-29T18:21:22.225Z,732
2016-04-29T18:22:22.182Z,720
2016-04-29T18:23:22.950Z,708
2016-04-29T18:24:22.218Z,684
2016-04-29T18:25:22.424Z,640
2016-04-29T22:35:28.184Z,0
2016-04-29T22:36:06.387Z,0
2016-04-29T22:36:40.780Z,0
2016-04-29T22:37:40.736Z,0
2016-04-29T22:38:40.817Z,0
2016-04-29T22:39:40.773Z,0
2016-04-29T22:40:40.776Z,0
2016-04-29T22:41:53.560Z,0
2016-04-29T22:42:48.359Z,0
2016-04-29T22:43:40.799Z,0
2016-04-29T22:45:00.130Z,0
2016-04-29T22:45:40.694Z,0
2016-04-29T22:47:37.873Z,0
2016-04-29T22:47:50.529Z,0
2016-04-29T22:49:21.846Z,0
2016-04-29T22:50:31.333Z,0
2016-04-29T22:51:24.883Z,0
2016-04-29T22:53:05.791Z,0
2016-04-29T22:53:18.654Z,0
2016-04-29T22:55:33.785Z,0
2016-04-29T22:56:33.927Z,0
2016-04-29T22:57:33.744Z,0
2016-04-29T22:59:24.999Z,0
2016-04-29T22:59:37.686Z,0
2016-04-29T23:01:43.801Z,0
2016-04-29T23:02:37.709Z,0
2016-04-29T23:03:44.040Z,0
2016-04-29T23:04:50.512Z,0
2016-04-29T23:05:56.999Z,0
2016-04-29T23:06:51.002Z,0
2016-04-29T23:08:53.959Z,0
2016-04-29T23:09:37.932Z,0
2016-04-29T23:11:19.390Z,0
2016-04-29T23:12:06.359Z,0
2016-04-29T23:13:25.740Z,0
2016-04-29T23:14:06.849Z,0
2016-04-29T23:16:09.292Z,0
2016-04-29T23:16:47.732Z,0
2016-04-29T23:17:22.031Z,0
2016-04-29T23:19:20.224Z,0
2016-04-29T23:19:32.786Z,0
2016-04-29T23:21:48.245Z,0
2016-04-29T23:22:47.966Z,0
2016-04-29T23:23:54.908Z,0
2016-04-29T23:24:54.425Z,0
2016-04-29T23:26:07.380Z,0
2016-04-29T23:26:48.196Z,0
2016-04-29T23:28:50.999Z,0
2016-04-29T23:29:03.514Z,0
2016-04-29T23:30:03.720Z,0
2016-04-29T23:31:16.147Z,0
2016-04-29T23:32:04.054Z,0
2016-04-29T23:34:12.902Z,0
2016-04-29T23:36:28.770Z,0
2016-04-29T23:38:38.447Z,0
2016-04-29T23:39:38.450Z,0
2016-04-29T23:40:25.796Z,0
2016-04-29T23:41:44.986Z,0
2016-04-29T23:42:25.942Z,0
2016-04-29T23:43:51.289Z,0
2016-04-29T23:44:38.542Z,0
2016-04-29T23:45:56.919Z,0
2016-04-29T23:46:45.015Z,0
2016-04-29T23:47:57.159Z,0
2016-04-29T23:48:45.334Z,0
2016-04-29T23:49:25.868Z,0
2016-04-29T23:50:51.558Z,0
2016-04-29T23:51:32.920Z,0
2016-04-29T23:53:26.863Z,0
2016-04-29T23:53:39.534Z,0
2016-04-29T23:55:37.102Z,0
2016-04-29T23:55:49.743Z,0
2016-04-29T23:56:49.746Z,0
2016-04-29T23:58:02.513Z,0
2016-04-29T23:58:49.782Z,0
